createdAt,value
2018-06-22T00:01:38.343Z,11.40
2018-06-22T00:04:22.572Z,11.30
2018-06-22T00:06:55.532Z,11.30
2018-06-22T00:09:31.188Z,11.20
2018-06-22T00:12:04.374Z,11.20
2018-06-22T00:14:37.101Z,11.10
2018-06-22T00:17:14.980Z,11.10
2018-06-22T00:19:47.552Z,11.00
2018-06-22T00:22:22.907Z,11.10
2018-06-22T00:24:55.359Z,11.10
2018-06-22T00:27:28.571Z,11.10
2018-06-22T00:30:00.737Z,11.20
2018-06-22T00:32:32.520Z,11.10
2018-06-22T00:35:03.891Z,11.10
2018-06-22T00:37:35.453Z,11.00
2018-06-22T00:40:07.743Z,10.90
2018-06-22T00:42:46.829Z,10.80
2018-06-22T00:45:24.155Z,10.70
2018-06-22T00:47:57.508Z,10.70
2018-06-22T00:50:29.828Z,10.60
2018-06-22T00:53:02.315Z,10.60
2018-06-22T00:55:34.187Z,10.50
2018-06-22T00:58:06.251Z,10.40
2018-06-22T01:00:50.947Z,10.40
2018-06-22T01:03:23.035Z,10.50
2018-06-22T01:05:54.918Z,10.50
2018-06-22T01:08:27.217Z,10.50
2018-06-22T01:10:59.891Z,10.40
2018-06-22T01:13:31.231Z,10.40
2018-06-22T01:16:02.971Z,10.40
2018-06-22T01:18:36.422Z,10.40
2018-06-22T01:21:08.695Z,10.40
2018-06-22T01:23:45.398Z,10.30
2018-06-22T01:26:17.506Z,10.30
2018-06-22T01:28:50.082Z,10.20
2018-06-22T01:31:25.830Z,10.10
2018-06-22T01:33:58.161Z,10.10
2018-06-22T01:36:34.855Z,10.00
2018-06-22T01:39:07.140Z,10.00
2018-06-22T01:41:39.221Z,10.00
2018-06-22T01:44:10.906Z,10.00
2018-06-22T01:46:42.376Z,10.00
2018-06-22T01:49:14.881Z,10.00
2018-06-22T01:51:46.339Z,10.10
2018-06-22T01:54:18.288Z,10.30
2018-06-22T01:56:54.318Z,10.40
2018-06-22T01:59:26.537Z,10.40
2018-06-22T02:01:59.442Z,10.50
2018-06-22T02:04:32.370Z,10.60
2018-06-22T02:07:12.224Z,10.70
2018-06-22T02:10:04.814Z,10.70
2018-06-22T02:12:36.971Z,10.70
2018-06-22T02:15:14.591Z,10.80
2018-06-22T02:17:53.984Z,10.80
2018-06-22T02:23:04.970Z,10.90
2018-06-22T02:25:39.999Z,10.90
2018-06-22T02:28:14.641Z,10.90
2018-06-22T02:30:52.468Z,11.00
2018-06-22T02:33:25.473Z,11.00
2018-06-22T02:35:57.754Z,11.10
2018-06-22T02:38:30.820Z,11.10
2018-06-22T02:41:07.090Z,11.00
2018-06-22T02:43:39.448Z,10.90
2018-06-22T02:46:12.436Z,10.80
2018-06-22T02:48:44.570Z,10.70
2018-06-22T02:51:17.006Z,10.60
2018-06-22T02:53:48.470Z,10.60
2018-06-22T02:56:20.156Z,10.60
2018-06-22T02:58:52.383Z,10.50
2018-06-22T03:01:30.445Z,10.50
2018-06-22T03:04:02.384Z,10.40
2018-06-22T03:06:34.762Z,10.30
2018-06-22T03:09:07.977Z,10.20
2018-06-22T03:11:40.377Z,10.30
2018-06-22T03:14:12.018Z,10.60
2018-06-22T03:16:44.060Z,10.80
2018-06-22T03:19:15.457Z,10.90
2018-06-22T03:21:48.035Z,11.10
2018-06-22T03:24:20.148Z,11.30
2018-06-22T03:26:52.242Z,11.40
2018-06-22T03:29:24.532Z,11.50
2018-06-22T03:31:56.717Z,11.50
2018-06-22T03:34:29.273Z,11.50
2018-06-22T03:37:12.202Z,11.60
2018-06-22T03:39:44.340Z,11.70
2018-06-22T03:42:15.698Z,11.70
2018-06-22T03:44:48.428Z,11.70
2018-06-22T03:47:19.557Z,11.70
2018-06-22T03:49:54.946Z,11.70
2018-06-22T03:52:27.081Z,11.60
2018-06-22T03:54:59.504Z,11.70
2018-06-22T03:57:31.206Z,11.70
2018-06-22T04:00:03.878Z,11.70
2018-06-22T04:02:41.946Z,11.80
2018-06-22T04:05:13.349Z,11.80
2018-06-22T04:07:45.303Z,11.80
2018-06-22T04:10:16.389Z,11.80
2018-06-22T04:12:49.282Z,11.80
2018-06-22T04:15:21.412Z,11.80
2018-06-22T04:17:56.233Z,11.80
2018-06-22T04:20:28.072Z,11.70
2018-06-22T04:23:00.155Z,11.80
2018-06-22T04:25:32.892Z,11.70
2018-06-22T04:28:09.494Z,11.70
2018-06-22T04:30:42.401Z,11.80
2018-06-22T04:33:13.354Z,11.90
2018-06-22T04:35:45.298Z,11.90
2018-06-22T04:40:50.551Z,12.00
2018-06-22T04:43:23.706Z,12.00
2018-06-22T04:45:55.204Z,12.00
2018-06-22T04:48:27.165Z,12.00
2018-06-22T04:51:02.944Z,12.00
2018-06-22T04:53:35.366Z,12.00
2018-06-22T04:56:07.332Z,12.00
2018-06-22T04:58:39.233Z,11.90
2018-06-22T05:01:11.258Z,11.90
2018-06-22T05:03:43.853Z,11.90
2018-06-22T05:06:16.363Z,11.90
2018-06-22T05:08:50.465Z,11.90
2018-06-22T05:11:27.250Z,11.90
2018-06-22T05:14:04.305Z,11.90
2018-06-22T05:16:37.077Z,11.90
2018-06-22T05:19:09.494Z,11.90
2018-06-22T05:21:41.711Z,11.90
2018-06-22T05:24:13.211Z,12.00
2018-06-22T05:26:44.619Z,12.10
2018-06-22T05:29:16.126Z,12.20
2018-06-22T05:31:47.949Z,12.20
2018-06-22T05:34:23.189Z,12.20
2018-06-22T05:36:55.612Z,12.10
2018-06-22T05:39:27.395Z,12.10
2018-06-22T05:41:59.500Z,12.00
2018-06-22T05:44:31.853Z,12.10
2018-06-22T05:47:03.817Z,12.20
2018-06-22T05:49:37.880Z,12.20
2018-06-22T05:52:09.528Z,12.20
2018-06-22T05:54:41.494Z,12.20
2018-06-22T05:57:14.463Z,12.30
2018-06-22T05:59:45.931Z,12.30
2018-06-22T06:02:17.969Z,12.40
2018-06-22T06:04:57.135Z,12.50
2018-06-22T06:07:33.449Z,12.70
2018-06-22T06:10:08.713Z,12.90
2018-06-22T06:15:48.964Z,13.10
2018-06-22T06:18:25.354Z,13.20
2018-06-22T06:21:09.089Z,13.10
2018-06-22T06:26:45.873Z,13.20
2018-06-22T06:29:17.938Z,13.20
2018-06-22T06:31:50.440Z,13.10
2018-06-22T06:34:22.750Z,13.10
2018-06-22T06:36:54.758Z,13.10
2018-06-22T06:39:30.201Z,13.00
2018-06-22T06:42:02.632Z,13.00
2018-06-22T06:44:34.801Z,13.10
2018-06-22T06:47:06.352Z,13.10
2018-06-22T06:49:38.135Z,13.10
2018-06-22T06:52:09.769Z,13.10
2018-06-22T06:54:41.719Z,13.20
2018-06-22T06:57:13.331Z,13.20
2018-06-22T06:59:45.782Z,13.20
2018-06-22T07:02:17.493Z,13.10
2018-06-22T07:04:48.841Z,13.10
2018-06-22T07:09:51.661Z,13.30
2018-06-22T07:12:23.593Z,13.50
2018-06-22T07:14:55.138Z,13.60
2018-06-22T07:17:27.386Z,13.70
2018-06-22T07:19:58.893Z,13.60
2018-06-22T07:22:31.222Z,13.60
2018-06-22T07:25:02.796Z,13.70
2018-06-22T07:27:34.516Z,13.80
2018-06-22T07:30:06.416Z,13.80
2018-06-22T07:32:38.120Z,13.80
2018-06-22T07:35:09.603Z,13.80
2018-06-22T07:37:47.244Z,13.80
2018-06-22T07:40:19.661Z,13.80
2018-06-22T07:42:51.759Z,13.80
2018-06-22T07:45:23.678Z,13.70
2018-06-22T07:47:55.838Z,13.60
2018-06-22T07:50:28.982Z,13.50
2018-06-22T07:53:00.980Z,13.60
2018-06-22T07:55:39.969Z,13.60
2018-06-22T07:58:11.754Z,13.70
2018-06-22T08:00:42.796Z,13.60
2018-06-22T08:03:15.347Z,13.70
2018-06-22T08:05:47.245Z,13.90
2018-06-22T08:08:18.864Z,14.10
2018-06-22T08:10:50.516Z,14.00
2018-06-22T08:13:26.458Z,13.90
2018-06-22T08:15:57.827Z,13.90
2018-06-22T08:18:29.684Z,13.90
2018-06-22T08:21:01.495Z,14.00
2018-06-22T08:23:34.221Z,14.10
2018-06-22T08:26:07.421Z,14.20
2018-06-22T08:28:40.028Z,14.20
2018-06-22T08:31:11.188Z,14.20
2018-06-22T08:33:42.019Z,14.20
2018-06-22T08:36:12.737Z,14.00
2018-06-22T08:38:47.639Z,13.70
2018-06-22T08:41:19.087Z,13.60
2018-06-22T08:43:50.294Z,13.60
2018-06-22T08:46:23.046Z,13.70
2018-06-22T08:48:55.342Z,13.90
2018-06-22T08:51:26.481Z,14.10
2018-06-22T08:53:58.982Z,14.30
2018-06-22T08:56:31.827Z,14.30
2018-06-22T08:59:10.948Z,14.30
2018-06-22T09:01:47.744Z,14.10
2018-06-22T09:04:22.734Z,14.00
2018-06-22T09:06:54.060Z,13.90
2018-06-22T09:09:30.912Z,14.00
2018-06-22T09:12:01.828Z,14.00
2018-06-22T09:14:32.605Z,13.70
2018-06-22T09:17:06.753Z,13.70
2018-06-22T09:19:38.015Z,13.90
2018-06-22T09:22:32.515Z,14.00
2018-06-22T09:25:05.062Z,14.20
2018-06-22T09:27:36.275Z,14.30
2018-06-22T09:30:07.165Z,14.20
2018-06-22T09:32:38.039Z,13.90
2018-06-22T09:35:09.682Z,13.90
2018-06-22T09:37:42.044Z,14.00
2018-06-22T09:40:14.712Z,14.10
2018-06-22T09:42:46.262Z,14.10
2018-06-22T09:45:20.773Z,14.40
2018-06-22T09:47:51.107Z,14.60
2018-06-22T09:50:24.968Z,14.60
2018-06-22T09:52:57.611Z,14.50
2018-06-22T09:55:38.000Z,14.70
2018-06-22T09:58:10.145Z,15.10
2018-06-22T10:00:55.209Z,15.60
2018-06-22T10:03:32.358Z,16.50
2018-06-22T10:06:04.290Z,17.10
2018-06-22T10:08:35.457Z,16.80
2018-06-22T10:11:07.712Z,16.90
2018-06-22T10:13:38.969Z,16.40
2018-06-22T10:16:11.993Z,16.30
2018-06-22T10:18:43.575Z,16.00
2018-06-22T10:21:14.970Z,16.00
2018-06-22T10:23:50.193Z,16.10
2018-06-22T10:26:20.684Z,16.30
2018-06-22T10:28:51.672Z,16.20
2018-06-22T10:31:22.234Z,16.20
2018-06-22T10:33:54.449Z,16.10
2018-06-22T10:36:25.893Z,16.30
2018-06-22T10:38:56.693Z,16.00
2018-06-22T10:41:30.122Z,16.90
2018-06-22T10:44:06.047Z,18.70
2018-06-22T10:46:46.904Z,20.20
2018-06-22T10:49:17.557Z,20.10
2018-06-22T10:51:51.083Z,19.10
2018-06-22T10:54:22.982Z,18.20
2018-06-22T10:56:58.256Z,17.10
2018-06-22T11:02:10.486Z,16.60
2018-06-22T11:04:41.581Z,16.80
2018-06-22T11:07:11.911Z,16.40
2018-06-22T11:09:45.012Z,16.00
2018-06-22T11:12:18.704Z,15.50
2018-06-22T11:14:49.766Z,15.00
2018-06-22T11:17:22.422Z,14.50
2018-06-22T11:19:58.040Z,14.40
2018-06-22T11:22:32.613Z,14.40
2018-06-22T11:25:03.879Z,14.60
2018-06-22T11:27:35.252Z,15.50
2018-06-22T11:30:06.963Z,16.50
2018-06-22T11:35:06.980Z,18.90
2018-06-22T11:37:37.618Z,19.40
2018-06-22T11:40:15.139Z,19.90
2018-06-22T11:42:47.071Z,20.60
2018-06-22T11:45:18.692Z,21.20
2018-06-22T11:47:49.398Z,21.90
2018-06-22T11:50:21.814Z,22.00
2018-06-22T11:52:52.367Z,22.10
2018-06-22T11:55:24.169Z,20.90
2018-06-22T11:57:55.374Z,19.20
2018-06-22T12:00:27.022Z,18.10
2018-06-22T12:02:58.372Z,17.60
2018-06-22T12:05:34.084Z,17.10
2018-06-22T12:08:05.327Z,16.60
2018-06-22T12:10:36.091Z,15.80
2018-06-22T12:13:10.999Z,15.20
2018-06-22T12:15:42.062Z,15.20
2018-06-22T12:18:21.170Z,15.50
2018-06-22T12:20:52.142Z,16.50
2018-06-22T12:23:23.807Z,18.30
2018-06-22T12:25:56.959Z,18.80
2018-06-22T12:28:28.644Z,18.80
2018-06-22T12:31:00.206Z,19.00
2018-06-22T12:33:35.321Z,19.70
2018-06-22T12:36:06.607Z,20.90
2018-06-22T12:38:58.010Z,21.40
2018-06-22T12:41:30.254Z,21.60
2018-06-22T12:44:02.360Z,21.70
2018-06-22T12:46:33.086Z,22.00
2018-06-22T12:49:07.238Z,22.60
2018-06-22T12:51:38.384Z,22.70
2018-06-22T12:54:08.530Z,22.50
2018-06-22T12:56:38.599Z,23.10
2018-06-22T12:59:09.009Z,23.30
2018-06-22T13:01:40.558Z,22.80
2018-06-22T13:04:24.011Z,22.70
2018-06-22T13:06:54.435Z,23.50
2018-06-22T13:09:25.619Z,23.20
2018-06-22T13:14:25.396Z,23.40
2018-06-22T13:16:55.532Z,24.10
2018-06-22T13:19:26.706Z,24.40
2018-06-22T13:21:57.832Z,25.50
2018-06-22T13:24:27.877Z,25.80
2018-06-22T13:26:57.997Z,26.30
2018-06-22T13:29:27.704Z,26.30
2018-06-22T13:32:04.276Z,25.10
2018-06-22T13:34:34.736Z,24.90
2018-06-22T13:37:08.469Z,25.10
2018-06-22T13:39:38.321Z,25.20
2018-06-22T13:42:09.499Z,23.80
2018-06-22T13:44:39.444Z,22.80
2018-06-22T13:47:11.026Z,22.30
2018-06-22T13:49:42.107Z,21.50
2018-06-22T13:52:17.659Z,22.50
2018-06-22T13:54:50.091Z,22.70
2018-06-22T13:57:21.634Z,22.50
2018-06-22T13:59:50.531Z,22.40
2018-06-22T14:02:19.675Z,23.00
2018-06-22T14:05:52.701Z,23.40
2018-06-22T14:08:22.090Z,24.70
2018-06-22T14:10:56.951Z,25.30
2018-06-22T14:13:32.568Z,26.00
2018-06-22T14:16:21.533Z,23.60
2018-06-22T14:19:17.461Z,22.60
2018-06-22T14:21:52.801Z,23.40
2018-06-22T14:24:24.412Z,23.70
2018-06-22T14:27:00.286Z,24.80
2018-06-22T14:29:36.154Z,25.60
2018-06-22T14:32:11.889Z,23.60
2018-06-22T14:34:42.467Z,22.40
2018-06-22T14:37:14.660Z,21.90
2018-06-22T14:39:45.024Z,21.30
2018-06-22T14:42:20.305Z,20.90
2018-06-22T14:44:52.078Z,20.50
2018-06-22T14:47:23.066Z,19.90
2018-06-22T14:50:02.723Z,19.60
2018-06-22T14:52:33.845Z,19.90
2018-06-22T14:55:11.294Z,19.80
2018-06-22T14:57:51.358Z,19.50
2018-06-22T15:00:27.787Z,19.30
2018-06-22T15:03:03.534Z,19.50
2018-06-22T15:08:19.994Z,20.30
2018-06-22T15:10:50.640Z,21.70
2018-06-22T15:13:21.733Z,22.00
2018-06-22T15:15:52.577Z,22.30
2018-06-22T15:18:24.174Z,23.00
2018-06-22T15:20:54.804Z,24.10
2018-06-22T15:23:26.154Z,24.90
2018-06-22T15:25:56.297Z,25.20
2018-06-22T15:28:28.776Z,25.90
2018-06-22T15:30:59.664Z,24.80
2018-06-22T15:33:35.696Z,22.80
2018-06-22T15:36:13.495Z,21.20
2018-06-22T15:41:25.423Z,19.60
2018-06-22T15:44:01.995Z,20.10
2018-06-22T15:46:37.873Z,20.80
2018-06-22T15:49:14.344Z,20.80
2018-06-22T15:51:50.239Z,20.30
2018-06-22T15:54:25.437Z,20.00
2018-06-22T15:56:57.802Z,21.30
2018-06-22T15:59:30.424Z,22.80
2018-06-22T16:02:07.382Z,24.00
2018-06-22T16:04:39.097Z,24.30
2018-06-22T16:07:10.933Z,24.80
2018-06-22T16:09:53.762Z,24.60
2018-06-22T16:12:30.292Z,25.20
2018-06-22T16:15:06.651Z,25.60
2018-06-22T16:17:44.170Z,24.30
2018-06-22T16:20:21.784Z,22.50
2018-06-22T16:22:58.938Z,22.50
2018-06-22T16:25:35.203Z,22.00
2018-06-22T16:28:07.074Z,22.10
2018-06-22T16:30:40.043Z,22.10
2018-06-22T16:33:12.823Z,21.60
2018-06-22T16:35:44.690Z,20.50
2018-06-22T16:38:19.173Z,20.10
2018-06-22T16:40:51.894Z,20.10
2018-06-22T16:43:24.370Z,19.80
2018-06-22T16:46:05.686Z,20.00
2018-06-22T16:48:37.242Z,20.40
2018-06-22T16:51:09.619Z,20.30
2018-06-22T16:53:41.770Z,20.10
2018-06-22T16:56:15.360Z,19.80
2018-06-22T16:58:47.134Z,19.60
2018-06-22T17:01:19.495Z,19.00
2018-06-22T17:03:51.068Z,18.50
2018-06-22T17:06:23.897Z,18.20
2018-06-22T17:09:00.655Z,18.20
2018-06-22T17:11:37.790Z,18.10
2018-06-22T17:14:16.619Z,18.40
2018-06-22T17:19:36.416Z,20.20
2018-06-22T17:22:09.202Z,20.30
2018-06-22T17:24:40.731Z,21.10
2018-06-22T17:27:13.644Z,21.40
2018-06-22T17:29:45.884Z,22.00
2018-06-22T17:32:17.993Z,21.90
2018-06-22T17:34:50.083Z,22.20
2018-06-22T17:37:27.677Z,22.10
2018-06-22T17:40:03.291Z,20.70
2018-06-22T17:42:34.976Z,20.70
2018-06-22T17:45:06.560Z,21.40
2018-06-22T17:47:47.820Z,21.60
2018-06-22T17:50:24.792Z,21.90
2018-06-22T17:52:56.813Z,22.00
2018-06-22T17:55:28.422Z,21.70
2018-06-22T17:58:00.923Z,21.40
2018-06-22T18:00:37.658Z,21.60
2018-06-22T18:03:14.592Z,20.70
2018-06-22T18:05:51.316Z,19.40
2018-06-22T18:08:28.494Z,18.40
2018-06-22T18:11:05.701Z,17.80
2018-06-22T18:13:37.652Z,17.30
2018-06-22T18:16:13.979Z,17.00
2018-06-22T18:18:46.490Z,16.80
2018-06-22T18:21:18.316Z,16.70
2018-06-22T18:23:49.905Z,16.60
2018-06-22T18:26:24.585Z,16.40
2018-06-22T18:28:56.303Z,16.50
2018-06-22T18:31:50.992Z,16.60
2018-06-22T18:34:24.975Z,16.60
2018-06-22T18:36:59.183Z,16.60
2018-06-22T18:39:31.325Z,16.60
2018-06-22T18:44:35.424Z,16.50
2018-06-22T18:47:06.850Z,16.30
2018-06-22T18:49:37.777Z,16.20
2018-06-22T18:55:00.308Z,16.00
2018-06-22T18:57:37.149Z,15.90
2018-06-22T19:02:55.014Z,15.60
2018-06-22T19:05:25.573Z,15.50
2018-06-22T19:07:56.187Z,15.50
2018-06-22T19:10:30.498Z,15.60
2018-06-22T19:13:07.372Z,15.60
2018-06-22T19:15:39.608Z,15.50
2018-06-22T19:18:11.424Z,15.40
2018-06-22T19:20:42.810Z,15.20
2018-06-22T19:23:13.200Z,15.00
2018-06-22T19:25:45.171Z,14.90
2018-06-22T19:28:15.902Z,14.80
2018-06-22T19:30:48.153Z,14.70
2018-06-22T19:33:18.845Z,14.60
2018-06-22T19:35:51.532Z,14.50
2018-06-22T19:38:23.896Z,14.50
2018-06-22T19:40:55.899Z,14.40
2018-06-22T19:43:36.617Z,14.40
2018-06-22T19:46:14.009Z,14.40
2018-06-22T19:48:51.426Z,14.40
2018-06-22T19:52:33.332Z,14.40
2018-06-22T19:55:04.875Z,14.40
2018-06-22T19:57:36.654Z,14.50
2018-06-22T20:00:09.255Z,14.50
2018-06-22T20:02:43.237Z,14.50
2018-06-22T20:05:15.153Z,14.50
2018-06-22T20:07:47.267Z,14.40
2018-06-22T20:10:18.234Z,14.40
2018-06-22T20:12:51.358Z,14.40
2018-06-22T20:15:24.396Z,14.30
2018-06-22T20:18:02.854Z,14.30
2018-06-22T20:20:37.624Z,14.20
2018-06-22T20:23:09.812Z,14.10
2018-06-22T20:25:45.042Z,14.10
2018-06-22T20:28:17.057Z,14.10
2018-06-22T20:30:48.319Z,14.10
2018-06-22T20:33:21.463Z,14.10
2018-06-22T20:36:03.036Z,14.10
2018-06-22T20:38:39.250Z,14.10
2018-06-22T20:41:15.720Z,14.10
2018-06-22T20:43:52.378Z,14.20
2018-06-22T20:46:28.901Z,14.10
2018-06-22T20:49:05.494Z,14.10
2018-06-22T20:51:47.189Z,14.10
2018-06-22T20:54:19.223Z,14.10
2018-06-22T20:56:51.397Z,14.00
2018-06-22T20:59:22.676Z,14.00
2018-06-22T21:01:54.333Z,13.90
2018-06-22T21:04:25.024Z,13.90
2018-06-22T21:06:56.387Z,13.90
2018-06-22T21:09:27.693Z,13.80
2018-06-22T21:11:59.221Z,13.70
2018-06-22T21:14:34.878Z,13.60
2018-06-22T21:17:06.391Z,13.50
2018-06-22T21:19:39.117Z,13.40
2018-06-22T21:22:12.595Z,13.30
2018-06-22T21:24:47.222Z,13.20
2018-06-22T21:27:24.215Z,13.10
2018-06-22T21:31:03.191Z,13.10
2018-06-22T21:33:39.566Z,13.00
2018-06-22T21:38:49.922Z,12.90
2018-06-22T21:41:26.226Z,12.90
2018-06-22T21:43:59.488Z,12.90
2018-06-22T21:46:32.897Z,12.90
2018-06-22T21:49:03.376Z,12.90
2018-06-22T21:51:35.657Z,12.90
2018-06-22T21:54:09.095Z,13.00
2018-06-22T21:56:39.492Z,13.00
2018-06-22T21:59:10.888Z,13.00
2018-06-22T22:01:45.340Z,13.10
2018-06-22T22:04:16.105Z,13.10
2018-06-22T22:06:47.560Z,13.20
2018-06-22T22:09:18.866Z,13.20
2018-06-22T22:11:54.550Z,13.20
2018-06-22T22:14:27.439Z,13.30
2018-06-22T22:16:58.705Z,13.20
2018-06-22T22:19:37.696Z,13.30
2018-06-22T22:22:09.796Z,13.30
2018-06-22T22:24:43.374Z,13.30
2018-06-22T22:27:14.002Z,13.30
2018-06-22T22:29:44.460Z,13.30
2018-06-22T22:32:15.983Z,13.40
2018-06-22T22:34:47.235Z,13.30
2018-06-22T22:37:19.201Z,13.30
2018-06-22T22:39:50.945Z,13.20
2018-06-22T22:42:23.570Z,13.20
2018-06-22T22:44:53.930Z,13.20
2018-06-22T22:47:28.476Z,13.20
2018-06-22T22:50:01.061Z,13.20
2018-06-22T22:52:33.177Z,13.20
2018-06-22T22:55:16.329Z,13.20
2018-06-22T22:57:48.206Z,13.20
2018-06-22T23:00:24.280Z,13.20
2018-06-22T23:02:55.211Z,13.20
2018-06-22T23:05:27.142Z,13.20
2018-06-22T23:07:58.352Z,13.10
2018-06-22T23:10:33.625Z,13.10
2018-06-22T23:13:05.329Z,13.10
2018-06-22T23:15:38.285Z,13.10
2018-06-22T23:18:20.892Z,13.10
2018-06-22T23:20:52.257Z,13.10
2018-06-22T23:23:33.059Z,13.10
2018-06-22T23:26:04.528Z,13.10
2018-06-22T23:28:36.679Z,13.10
2018-06-22T23:31:07.987Z,13.10
2018-06-22T23:33:39.877Z,13.10
2018-06-22T23:36:11.742Z,13.10
2018-06-22T23:38:49.293Z,13.00
2018-06-22T23:41:20.529Z,13.00
2018-06-22T23:43:51.323Z,12.90
2018-06-22T23:46:22.493Z,12.90
2018-06-22T23:48:54.712Z,12.80
2018-06-22T23:51:26.486Z,12.80
2018-06-22T23:53:57.680Z,12.70
2018-06-22T23:56:28.818Z,12.60
2018-06-22T23:59:00.287Z,12.60
